Bena, Minnesota
Current Conditions -  °F | °C
As of 1:55 PM on Wednesday 17 Dec 2014 (Local Time) from KY49 Reporting Station
Clear Clear  
Wind Chill: 11°   Ceiling: Unl
Heat Index: 18°   Visibility: 10mi
Dew Point: 10°   Wind: 5mph
Humidity: 70%   Direction: 350°N
Pressure: 30.27"   Gusts: NA
Location:  47.34°N, 94.21°W
Report Text: KY49 171955Z AUTO 35004KT 10SM CLR M08/M12 A3027 RMK AO2 T10761122
Loading
Personal Weather Stations






























Interactive Weather Map New forecast layout! Learn more

10-Day Weather Forecast

Advertisements
Track Severe Weather on mobile